Grosse Pointe Shores, Michigan
Current Conditions -  °F | °C
As of 6:53 PM on Wednesday 22 Oct 2014 (Local Time) from KDET Reporting Station
Clear Clear  
Wind Chill: 52°   Ceiling: Unl
Heat Index: 52°   Visibility: 10mi
Dew Point: 39°   Wind: 7mph
Humidity: 61%   Direction: 360°N
Pressure: 30.29"   Gusts: NA
Location:  42.4243°N, 82.8975°W
Report Text: KDET 222253Z 36006KT 10SM CLR 11/04 A3029 RMK AO2 SLP260 T01110039
Loading
Personal Weather Stations






























Interactive Weather Map
Tropical Storm Tracking
New forecast layout! Learn more

10-Day Weather Forecast

Advertisements
Track Severe Weather on mobile